Time;durP1;ratioP1;P1;durP2;ratioP2;P2;SDS_P1;SDS_P2;PMS_P1;PMS_P2;Temp;Humidity;BMP_temperature;BMP_pressure;BME280_temperature;BME280_humidity;BME280_pressure;Samples;Min_cycle;Max_cycle;Signal;HPM_P1;HPM_P2
2020/12/04 00:01:12;;;;;;;0.20;0.20;;;;;;;;;;5091943;28;20095;-71
2020/12/04 00:03:38;;;;;;;0.20;0.20;;;;;;;;;;5053525;28;20021;-71
2020/12/04 00:06:03;;;;;;;0.20;0.20;;;;;;;;;;5053992;28;20032;-71
2020/12/04 00:08:29;;;;;;;0.20;0.20;;;;;;;;;;5073708;28;20017;-71
2020/12/04 00:10:54;;;;;;;0.20;0.20;;;;;;;;;;5091615;28;20104;-71
2020/12/04 00:13:19;;;;;;;0.20;0.20;;;;;;;;;;5073807;28;20032;-71
2020/12/04 00:15:45;;;;;;;0.20;0.20;;;;;;;;;;5074436;28;20047;-71
2020/12/04 00:18:10;;;;;;;0.20;0.20;;;;;;;;;;5091695;28;20488;-71
2020/12/04 00:20:35;;;;;;;0.25;0.25;;;;;;;;;;5056863;28;20028;-71
2020/12/04 00:23:01;;;;;;;0.20;0.20;;;;;;;;;;5073265;28;20380;-71
2020/12/04 00:25:26;;;;;;;0.30;0.30;;;;;;;;;;5087219;28;20120;-71
2020/12/04 00:27:51;;;;;;;0.17;0.17;;;;;;;;;;5052619;28;20461;-71
2020/12/04 00:30:16;;;;;;;0.20;0.20;;;;;;;;;;5050498;28;20050;-71
2020/12/04 00:32:42;;;;;;;0.20;0.20;;;;;;;;;;5094733;28;20020;-71
2020/12/04 00:35:07;;;;;;;0.20;0.20;;;;;;;;;;5095032;28;20479;-71
2020/12/04 00:37:32;;;;;;;0.20;0.20;;;;;;;;;;5073879;28;20032;-71
2020/12/04 00:39:58;;;;;;;0.30;0.30;;;;;;;;;;5057078;28;20028;-71
2020/12/04 00:42:23;;;;;;;0.20;0.20;;;;;;;;;;5076466;28;20023;-71
2020/12/04 00:44:49;;;;;;;0.20;0.20;;;;;;;;;;5095242;28;20032;-71
2020/12/04 00:47:14;;;;;;;0.20;0.20;;;;;;;;;;5077202;28;20095;-71
2020/12/04 00:49:40;;;;;;;0.20;0.20;;;;;;;;;;5077567;28;20103;-71
2020/12/04 00:52:05;;;;;;;0.20;0.20;;;;;;;;;;5077641;28;20338;-71
2020/12/04 00:54:30;;;;;;;0.20;0.20;;;;;;;;;;5060834;28;20017;-70
2020/12/04 00:56:56;;;;;;;0.20;0.20;;;;;;;;;;5077687;28;20418;-71
2020/12/04 00:59:21;;;;;;;0.20;0.20;;;;;;;;;;5060643;28;20673;-70
2020/12/04 01:01:46;;;;;;;0.20;0.20;;;;;;;;;;5067354;28;20049;-70
2020/12/04 01:04:12;;;;;;;0.20;0.20;;;;;;;;;;5053896;28;20298;-70
2020/12/04 01:06:37;;;;;;;0.20;0.20;;;;;;;;;;5053237;28;20024;-70
2020/12/04 01:09:05;;;;;;;0.30;0.30;;;;;;;;;;5053493;28;20253;-70
2020/12/04 01:11:31;;;;;;;0.20;0.20;;;;;;;;;;5053573;28;20024;-70
2020/12/04 01:13:57;;;;;;;0.25;0.25;;;;;;;;;;5036980;28;20115;-70
2020/12/04 01:16:22;;;;;;;0.20;0.20;;;;;;;;;;5053445;28;20093;-71
2020/12/04 01:18:47;;;;;;;0.20;0.20;;;;;;;;;;5053520;28;20021;-71
2020/12/04 01:21:13;;;;;;;0.20;0.20;;;;;;;;;;5037251;28;20034;-70
2020/12/04 01:23:39;;;;;;;0.20;0.20;;;;;;;;;;5053364;28;20651;-71
2020/12/04 01:26:04;;;;;;;0.25;0.25;;;;;;;;;;5053380;28;20052;-70
2020/12/04 01:28:29;;;;;;;0.22;0.22;;;;;;;;;;5053524;28;20028;-70
2020/12/04 01:30:54;;;;;;;0.20;0.20;;;;;;;;;;5027416;28;20021;-70
2020/12/04 01:33:20;;;;;;;0.30;0.30;;;;;;;;;;5033655;28;20825;-70
2020/12/04 01:35:45;;;;;;;0.22;0.22;;;;;;;;;;5017144;28;20021;-69
2020/12/04 01:38:10;;;;;;;0.30;0.30;;;;;;;;;;5022350;28;20049;-70
2020/12/04 01:40:36;;;;;;;0.20;0.20;;;;;;;;;;5034085;28;20032;-70
2020/12/04 01:43:01;;;;;;;0.20;0.20;;;;;;;;;;5034230;28;20037;-70
2020/12/04 01:45:27;;;;;;;0.30;0.30;;;;;;;;;;5033654;28;20025;-70
2020/12/04 01:47:52;;;;;;;0.25;0.25;;;;;;;;;;5034801;28;20017;-70
2020/12/04 01:50:18;;;;;;;0.20;0.20;;;;;;;;;;5033255;28;20087;-70
2020/12/04 01:52:43;;;;;;;0.30;0.30;;;;;;;;;;5033433;28;20025;-70
2020/12/04 01:55:09;;;;;;;0.20;0.20;;;;;;;;;;5016749;28;20029;-70
2020/12/04 01:57:35;;;;;;;0.30;0.30;;;;;;;;;;5041299;28;20108;-70
2020/12/04 02:00:00;;;;;;;0.20;0.20;;;;;;;;;;5036524;28;20032;-70
2020/12/04 02:02:25;;;;;;;0.30;0.30;;;;;;;;;;5064415;28;20075;-70
2020/12/04 02:04:53;;;;;;;0.30;0.30;;;;;;;;;;5073347;28;20062;-70
2020/12/04 02:07:28;;;;;;;0.20;0.20;;;;;;;;;;5056222;28;20465;-70
2020/12/04 02:09:54;;;;;;;;;;;;;;;;;;5056576;28;20013;-70
2020/12/04 02:12:19;;;;;;;0.30;0.30;;;;;;;;;;5072362;28;19908;-70
2020/12/04 02:14:47;;;;;;;0.40;0.40;;;;;;;;;;5073188;28;20158;-70
2020/12/04 02:17:12;;;;;;;0.30;0.30;;;;;;;;;;5073802;28;20020;-70
2020/12/04 02:19:38;;;;;;;0.30;0.30;;;;;;;;;;5072635;28;20099;-70
2020/12/04 02:22:04;;;;;;;0.25;0.25;;;;;;;;;;5074126;28;20035;-70
2020/12/04 02:24:29;;;;;;;0.30;0.30;;;;;;;;;;5072737;28;20063;-70
2020/12/04 02:26:54;;;;;;;0.30;0.30;;;;;;;;;;5072548;28;20020;-70
2020/12/04 02:29:20;;;;;;;0.30;0.30;;;;;;;;;;5055803;28;20028;-70
2020/12/04 02:31:45;;;;;;;0.30;0.30;;;;;;;;;;5063713;28;20070;-71
2020/12/04 02:34:10;;;;;;;0.22;0.22;;;;;;;;;;5072441;28;20023;-70
2020/12/04 02:36:35;;;;;;;0.20;0.20;;;;;;;;;;5072395;28;20025;-70
2020/12/04 02:39:00;;;;;;;0.30;0.30;;;;;;;;;;5057283;28;20116;-70
2020/12/04 02:41:26;;;;;;;0.20;0.20;;;;;;;;;;5035390;28;20039;-70
2020/12/04 02:43:51;;;;;;;0.20;0.20;;;;;;;;;;5052571;28;20433;-70
2020/12/04 02:46:16;;;;;;;0.30;0.30;;;;;;;;;;5052157;28;20017;-70
2020/12/04 02:48:42;;;;;;;0.30;0.30;;;;;;;;;;5052442;28;20396;-70
2020/12/04 02:51:07;;;;;;;0.28;0.28;;;;;;;;;;5053258;28;20029;-70
2020/12/04 02:53:32;;;;;;;0.30;0.30;;;;;;;;;;5052183;28;20029;-70
2020/12/04 02:55:58;;;;;;;0.30;0.30;;;;;;;;;;5061866;28;20278;-70
2020/12/04 02:58:23;;;;;;;0.20;0.20;;;;;;;;;;5051816;28;20427;-70
2020/12/04 03:00:48;;;;;;;0.30;0.30;;;;;;;;;;5053440;28;20373;-71
2020/12/04 03:03:14;;;;;;;0.30;0.30;;;;;;;;;;5051703;28;20055;-70
2020/12/04 03:05:39;;;;;;;0.20;0.20;;;;;;;;;;5052401;28;20033;-70
2020/12/04 03:08:04;;;;;;;0.20;0.20;;;;;;;;;;5055145;28;20035;-71
2020/12/04 03:10:30;;;;;;;0.30;0.30;;;;;;;;;;5071900;28;20328;-70
2020/12/04 03:12:55;;;;;;;0.30;0.30;;;;;;;;;;5054896;28;20473;-70
2020/12/04 03:15:20;;;;;;;0.30;0.30;;;;;;;;;;5071809;28;20266;-70
2020/12/04 03:17:45;;;;;;;0.30;0.30;;;;;;;;;;5071485;28;20035;-70
2020/12/04 03:20:11;;;;;;;0.30;0.30;;;;;;;;;;5071408;28;20429;-70
2020/12/04 03:22:37;;;;;;;0.30;0.30;;;;;;;;;;5073863;28;20021;-70
2020/12/04 03:25:02;;;;;;;0.20;0.20;;;;;;;;;;5072783;28;20017;-70
2020/12/04 03:27:27;;;;;;;0.30;0.30;;;;;;;;;;5076968;28;20269;-70
2020/12/04 03:29:53;;;;;;;0.30;0.30;;;;;;;;;;5067820;28;20020;-70
2020/12/04 03:32:18;;;;;;;0.20;0.20;;;;;;;;;;5086140;28;20263;-70
2020/12/04 03:34:43;;;;;;;0.28;0.28;;;;;;;;;;5076960;28;20021;-70
2020/12/04 03:37:08;;;;;;;0.30;0.30;;;;;;;;;;5055359;28;20028;-70
2020/12/04 03:39:33;;;;;;;0.30;0.30;;;;;;;;;;5073124;28;20071;-70
2020/12/04 03:41:59;;;;;;;0.30;0.30;;;;;;;;;;5071254;28;20583;-70
2020/12/04 03:44:24;;;;;;;0.20;0.20;;;;;;;;;;5072963;28;20039;-70
2020/12/04 03:46:50;;;;;;;0.20;0.20;;;;;;;;;;5054750;28;20769;-70
2020/12/04 03:49:15;;;;;;;0.30;0.30;;;;;;;;;;5071465;28;20008;-69
2020/12/04 03:51:41;;;;;;;0.30;0.30;;;;;;;;;;5054812;28;20116;-69
2020/12/04 03:54:06;;;;;;;0.30;0.30;;;;;;;;;;5054657;28;20021;-70
2020/12/04 03:56:31;;;;;;;0.30;0.30;;;;;;;;;;5071336;28;20368;-69
2020/12/04 03:58:57;;;;;;;0.30;0.30;;;;;;;;;;5071327;28;20102;-69
2020/12/04 04:01:22;;;;;;;0.30;0.30;;;;;;;;;;5073463;28;20028;-70
2020/12/04 04:03:48;;;;;;;0.30;0.30;;;;;;;;;;5058131;28;20035;-70
2020/12/04 04:06:13;;;;;;;0.20;0.20;;;;;;;;;;5076885;28;20069;-71
2020/12/04 04:08:38;;;;;;;0.30;0.30;;;;;;;;;;5066425;28;20021;-70
2020/12/04 04:11:04;;;;;;;0.20;0.20;;;;;;;;;;5075209;28;20388;-70
2020/12/04 04:13:30;;;;;;;0.20;0.20;;;;;;;;;;5078336;28;20020;-71
2020/12/04 04:15:55;;;;;;;0.20;0.20;;;;;;;;;;5078223;28;20038;-70
2020/12/04 04:18:20;;;;;;;0.20;0.20;;;;;;;;;;5096337;28;20035;-70
2020/12/04 04:20:46;;;;;;;0.20;0.20;;;;;;;;;;5096400;28;20024;-70
2020/12/04 04:23:11;;;;;;;0.22;0.22;;;;;;;;;;5078384;28;20012;-70
2020/12/04 04:25:36;;;;;;;0.20;0.20;;;;;;;;;;5078182;28;20090;-70
2020/12/04 04:28:02;;;;;;;0.30;0.30;;;;;;;;;;5096372;28;20456;-70
2020/12/04 04:30:27;;;;;;;0.20;0.20;;;;;;;;;;5095923;28;20015;-70
2020/12/04 04:32:53;;;;;;;0.20;0.20;;;;;;;;;;5078424;28;20095;-70
2020/12/04 04:35:18;;;;;;;0.20;0.20;;;;;;;;;;5078179;28;20036;-71
2020/12/04 04:37:44;;;;;;;0.27;0.27;;;;;;;;;;5077764;28;20071;-70
2020/12/04 04:40:10;;;;;;;0.22;0.22;;;;;;;;;;5095966;28;20250;-70
2020/12/04 04:42:36;;;;;;;0.20;0.20;;;;;;;;;;5095960;28;20423;-69
2020/12/04 04:45:01;;;;;;;0.20;0.20;;;;;;;;;;5078192;28;20032;-70
2020/12/04 04:47:30;;;;;;;0.20;0.20;;;;;;;;;;5078187;28;20020;-69
2020/12/04 04:49:56;;;;;;;0.30;0.30;;;;;;;;;;5095661;28;20016;-69
2020/12/04 04:52:21;;;;;;;0.30;0.30;;;;;;;;;;5077880;28;20031;-70
2020/12/04 04:54:47;;;;;;;0.20;0.20;;;;;;;;;;5061008;28;20020;-70
2020/12/04 04:57:13;;;;;;;0.20;0.20;;;;;;;;;;5077496;28;20016;-70
2020/12/04 04:59:39;;;;;;;0.20;0.20;;;;;;;;;;5060793;28;20414;-70
2020/12/04 05:02:04;;;;;;;0.20;0.20;;;;;;;;;;5068206;28;20048;-70
2020/12/04 05:04:48;;;;;;;0.30;0.30;;;;;;;;;;5054550;28;20178;-70
2020/12/04 05:07:15;;;;;;;0.20;0.20;;;;;;;;;;5053884;28;20013;-70
2020/12/04 05:09:40;;;;;;;0.20;0.20;;;;;;;;;;5034281;28;20024;-70
2020/12/04 05:12:06;;;;;;;0.20;0.20;;;;;;;;;;5035225;28;20665;-70
2020/12/04 05:14:31;;;;;;;0.30;0.30;;;;;;;;;;5033972;28;20028;-70
2020/12/04 05:16:57;;;;;;;0.40;0.40;;;;;;;;;;5033145;28;20060;-70
2020/12/04 05:19:29;;;;;;;0.30;0.30;;;;;;;;;;5039177;28;20104;-70
2020/12/04 05:21:56;;;;;;;0.25;0.25;;;;;;;;;;5054215;28;20025;-70
2020/12/04 05:24:27;;;;;;;0.28;0.28;;;;;;;;;;5055036;28;20028;-70
2020/12/04 05:26:52;;;;;;;0.30;0.30;;;;;;;;;;5037149;28;20090;-69
2020/12/04 05:29:18;;;;;;;0.20;0.20;;;;;;;;;;5053713;28;20013;-70
2020/12/04 05:31:43;;;;;;;0.20;0.20;;;;;;;;;;5053837;28;20017;-70
2020/12/04 05:34:21;;;;;;;0.20;0.20;;;;;;;;;;5053638;28;20056;-70
2020/12/04 05:36:47;;;;;;;0.20;0.20;;;;;;;;;;5037038;28;20045;-70
2020/12/04 05:39:12;;;;;;;0.20;0.20;;;;;;;;;;5053851;28;20409;-70
2020/12/04 05:41:50;;;;;;;0.30;0.30;;;;;;;;;;5037266;28;20017;-70
2020/12/04 05:44:16;;;;;;;0.30;0.30;;;;;;;;;;5055201;28;20365;-70
2020/12/04 05:46:43;;;;;;;0.30;0.30;;;;;;;;;;5053766;28;20047;-75
2020/12/04 05:49:08;;;;;;;0.30;0.30;;;;;;;;;;5053248;28;20013;-70
2020/12/04 05:51:35;;;;;;;0.30;0.30;;;;;;;;;;5039243;28;20431;-74
2020/12/04 05:54:00;;;;;;;0.20;0.20;;;;;;;;;;5056695;28;20048;-74
2020/12/04 05:56:26;;;;;;;0.20;0.20;;;;;;;;;;5054020;28;20044;-70
2020/12/04 05:58:55;;;;;;;0.30;0.30;;;;;;;;;;5053341;28;20075;-69
2020/12/04 06:01:21;;;;;;;0.35;0.35;;;;;;;;;;5036285;28;20040;-70
2020/12/04 06:03:49;;;;;;;0.30;0.30;;;;;;;;;;5072387;28;20045;-70
2020/12/04 06:06:30;;;;;;;0.30;0.30;;;;;;;;;;5056193;28;20012;-70
2020/12/04 06:08:56;;;;;;;0.30;0.30;;;;;;;;;;5058622;28;20020;-70
2020/12/04 06:11:22;;;;;;;0.30;0.30;;;;;;;;;;5052842;28;20029;-70
2020/12/04 06:13:47;;;;;;;0.30;0.30;;;;;;;;;;5054044;28;20032;-70
2020/12/04 06:16:13;;;;;;;0.20;0.20;;;;;;;;;;5071985;28;20710;-70
2020/12/04 06:18:39;;;;;;;0.20;0.20;;;;;;;;;;5056047;28;20074;-70
2020/12/04 06:21:04;;;;;;;0.20;0.20;;;;;;;;;;5055859;28;20123;-70
2020/12/04 06:23:29;;;;;;;0.30;0.30;;;;;;;;;;5055980;28;20039;-70
2020/12/04 06:25:56;;;;;;;0.20;0.20;;;;;;;;;;5073939;28;20368;-70
2020/12/04 06:28:21;;;;;;;0.28;0.28;;;;;;;;;;5073481;28;20055;-70
2020/12/04 06:31:00;;;;;;;0.30;0.30;;;;;;;;;;5072181;28;20040;-70
2020/12/04 06:33:29;;;;;;;0.30;0.30;;;;;;;;;;5072212;28;20103;-70
2020/12/04 06:35:54;;;;;;;0.28;0.28;;;;;;;;;;5072392;28;20099;-70
2020/12/04 06:38:35;;;;;;;0.30;0.30;;;;;;;;;;5063088;28;20129;-70
2020/12/04 06:41:26;;;;;;;0.22;0.22;;;;;;;;;;5053711;28;20279;-70
2020/12/04 06:44:12;;;;;;;0.30;0.30;;;;;;;;;;5035138;28;20388;-70
2020/12/04 06:46:44;;;;;;;0.30;0.30;;;;;;;;;;5072310;28;20032;-70
2020/12/04 06:49:22;;;;;;;0.22;0.22;;;;;;;;;;5071589;28;20058;-70
2020/12/04 06:52:17;;;;;;;0.20;0.20;;;;;;;;;;5068365;28;20020;-70
2020/12/04 06:54:45;;;;;;;0.30;0.30;;;;;;;;;;5062988;28;20040;-70
2020/12/04 06:57:10;;;;;;;0.30;0.30;;;;;;;;;;5052252;28;20037;-70
2020/12/04 06:59:36;;;;;;;0.30;0.30;;;;;;;;;;5053620;28;20021;-70
2020/12/04 07:02:06;;;;;;;0.30;0.30;;;;;;;;;;5059414;28;20099;-71
2020/12/04 07:04:31;;;;;;;0.30;0.30;;;;;;;;;;5058323;28;20023;-70
2020/12/04 07:07:00;;;;;;;0.28;0.28;;;;;;;;;;5055006;28;20538;-70
2020/12/04 07:09:26;;;;;;;0.30;0.30;;;;;;;;;;5055285;28;20043;-70
2020/12/04 07:11:51;;;;;;;0.20;0.20;;;;;;;;;;5054867;28;20028;-70
2020/12/04 07:14:19;;;;;;;0.30;0.30;;;;;;;;;;5071367;28;20110;-71
2020/12/04 07:16:45;;;;;;;0.30;0.30;;;;;;;;;;5074993;28;20020;-71
2020/12/04 07:19:10;;;;;;;0.30;0.30;;;;;;;;;;5047649;28;20449;-70
2020/12/04 07:21:35;;;;;;;0.20;0.20;;;;;;;;;;5071441;28;20028;-70
2020/12/04 07:24:00;;;;;;;0.20;0.20;;;;;;;;;;5054757;28;20021;-70
2020/12/04 07:26:28;;;;;;;0.20;0.20;;;;;;;;;;5058029;28;20672;-70
2020/12/04 07:28:53;;;;;;;0.30;0.30;;;;;;;;;;5075068;28;20009;-70
2020/12/04 07:31:18;;;;;;;0.25;0.25;;;;;;;;;;5057815;28;20388;-71
2020/12/04 07:33:57;;;;;;;0.20;0.20;;;;;;;;;;5074651;28;20468;-70
2020/12/04 07:36:22;;;;;;;0.20;0.20;;;;;;;;;;5053271;28;20442;-70
2020/12/04 07:38:51;;;;;;;0.20;0.20;;;;;;;;;;5056117;28;20073;-70
2020/12/04 07:41:23;;;;;;;0.20;0.20;;;;;;;;;;5077112;28;20058;-69
2020/12/04 07:43:49;;;;;;;0.20;0.20;;;;;;;;;;5061325;28;20479;-70
2020/12/04 07:46:17;;;;;;;0.20;0.20;;;;;;;;;;5067552;28;20027;-70
2020/12/04 07:48:57;;;;;;;0.20;0.20;;;;;;;;;;5082075;28;20020;-69
2020/12/04 07:51:22;;;;;;;0.20;0.20;;;;;;;;;;5075650;28;20016;-69
2020/12/04 07:53:47;;;;;;;0.20;0.20;;;;;;;;;;5068234;28;20084;-70
2020/12/04 07:56:13;;;;;;;0.20;0.20;;;;;;;;;;5077248;28;20020;-71
2020/12/04 07:58:38;;;;;;;0.20;0.20;;;;;;;;;;5091811;28;20008;-70
2020/12/04 08:01:03;;;;;;;0.30;0.30;;;;;;;;;;5052307;28;20312;-70
2020/12/04 08:03:28;;;;;;;0.20;0.20;;;;;;;;;;5034857;28;20042;-70
2020/12/04 08:05:54;;;;;;;0.20;0.20;;;;;;;;;;5051396;28;20590;-70
2020/12/04 08:08:20;;;;;;;0.30;0.30;;;;;;;;;;5038463;28;20707;-70
2020/12/04 08:10:45;;;;;;;0.20;0.20;;;;;;;;;;5055590;28;20025;-70
2020/12/04 08:13:11;;;;;;;0.20;0.20;;;;;;;;;;5055173;28;20096;-70
2020/12/04 08:15:40;;;;;;;0.20;0.20;;;;;;;;;;5037656;28;20465;-70
2020/12/04 08:18:06;;;;;;;0.20;0.20;;;;;;;;;;5054232;28;20021;-70
2020/12/04 08:20:31;;;;;;;0.30;0.30;;;;;;;;;;5041259;28;20033;-71
2020/12/04 08:22:57;;;;;;;0.20;0.20;;;;;;;;;;5051608;28;20516;-71
2020/12/04 08:25:23;;;;;;;0.20;0.20;;;;;;;;;;5055530;28;20013;-70
2020/12/04 08:27:49;;;;;;;0.20;0.20;;;;;;;;;;5055438;28;20074;-71
2020/12/04 08:30:18;;;;;;;0.20;0.20;;;;;;;;;;5035470;28;20022;-71
2020/12/04 08:33:05;;;;;;;0.20;0.20;;;;;;;;;;5036022;28;20033;-71
2020/12/04 08:35:34;;;;;;;0.20;0.20;;;;;;;;;;5074364;28;20402;-71
2020/12/04 08:38:12;;;;;;;0.20;0.20;;;;;;;;;;5037350;28;20104;-73
2020/12/04 08:40:49;;;;;;;0.30;0.30;;;;;;;;;;5035837;28;20025;-72
2020/12/04 08:43:15;;;;;;;0.20;0.20;;;;;;;;;;5026792;28;20021;-74
2020/12/04 08:45:42;;;;;;;0.20;0.20;;;;;;;;;;5051420;28;20487;-72
2020/12/04 08:48:08;;;;;;;0.20;0.20;;;;;;;;;;5036939;28;20021;-73
2020/12/04 08:50:37;;;;;;;0.20;0.20;;;;;;;;;;5045481;28;20024;-72
2020/12/04 08:53:07;;;;;;;0.30;0.30;;;;;;;;;;5036738;28;20025;-73
2020/12/04 08:55:33;;;;;;;0.20;0.20;;;;;;;;;;5037253;28;20013;-72
2020/12/04 08:57:59;;;;;;;0.28;0.28;;;;;;;;;;5055152;28;20090;-69
2020/12/04 09:00:32;;;;;;;0.20;0.20;;;;;;;;;;5054111;28;20028;-70
2020/12/04 09:02:57;;;;;;;0.20;0.20;;;;;;;;;;5037741;28;20044;-69
2020/12/04 09:05:22;;;;;;;0.22;0.22;;;;;;;;;;5053709;28;20013;-70
2020/12/04 09:07:47;;;;;;;0.20;0.20;;;;;;;;;;5049482;28;20531;-69
2020/12/04 09:10:14;;;;;;;0.20;0.20;;;;;;;;;;5034572;28;20036;-69
2020/12/04 09:12:39;;;;;;;0.20;0.20;;;;;;;;;;5071437;28;20019;-69
2020/12/04 09:15:05;;;;;;;0.22;0.22;;;;;;;;;;5072948;28;20119;-70
2020/12/04 09:17:30;;;;;;;0.20;0.20;;;;;;;;;;5056131;28;20017;-69
2020/12/04 09:19:56;;;;;;;0.30;0.30;;;;;;;;;;5033095;28;20071;-69
2020/12/04 09:22:21;;;;;;;0.20;0.20;;;;;;;;;;5049577;28;20033;-69
2020/12/04 09:24:46;;;;;;;0.20;0.20;;;;;;;;;;5032482;28;20037;-69
2020/12/04 09:27:12;;;;;;;0.20;0.20;;;;;;;;;;5039486;28;20028;-69
2020/12/04 09:29:37;;;;;;;0.20;0.20;;;;;;;;;;5053455;28;20052;-69
2020/12/04 09:32:06;;;;;;;0.20;0.20;;;;;;;;;;5036132;28;20025;-71
2020/12/04 09:34:31;;;;;;;0.20;0.20;;;;;;;;;;5042479;28;20023;-71
2020/12/04 09:37:07;;;;;;;0.20;0.20;;;;;;;;;;5073905;28;20016;-70
2020/12/04 09:39:33;;;;;;;0.20;0.20;;;;;;;;;;5074503;28;20457;-71
2020/12/04 09:41:58;;;;;;;0.20;0.20;;;;;;;;;;5057316;28;20024;-70
2020/12/04 09:44:24;;;;;;;0.30;0.30;;;;;;;;;;5061475;28;20091;-71
2020/12/04 09:46:49;;;;;;;0.20;0.20;;;;;;;;;;5054200;28;20071;-71
2020/12/04 09:49:15;;;;;;;0.20;0.20;;;;;;;;;;5037042;28;20028;-70
2020/12/04 09:51:40;;;;;;;0.20;0.20;;;;;;;;;;5054008;28;20465;-70
2020/12/04 09:54:05;;;;;;;0.22;0.22;;;;;;;;;;5053281;28;20025;-69
2020/12/04 09:56:31;;;;;;;0.20;0.20;;;;;;;;;;5059747;28;20034;-71
2020/12/04 09:58:56;;;;;;;0.20;0.20;;;;;;;;;;5056489;28;20020;-70
2020/12/04 10:01:22;;;;;;;0.20;0.20;;;;;;;;;;5055970;28;20070;-70
2020/12/04 10:03:48;;;;;;;0.30;0.30;;;;;;;;;;5063295;28;20037;-71
2020/12/04 10:06:14;;;;;;;0.20;0.20;;;;;;;;;;5072491;28;20009;-70
2020/12/04 10:08:39;;;;;;;0.20;0.20;;;;;;;;;;5043636;28;20474;-70
2020/12/04 10:11:09;;;;;;;0.20;0.20;;;;;;;;;;5039487;28;20537;-70
2020/12/04 10:13:34;;;;;;;0.20;0.20;;;;;;;;;;5068817;28;20584;-70
2020/12/04 10:16:05;;;;;;;0.20;0.20;;;;;;;;;;5068061;28;20103;-72
2020/12/04 10:18:31;;;;;;;0.20;0.20;;;;;;;;;;5072151;28;20029;-72
2020/12/04 10:20:57;;;;;;;0.20;0.20;;;;;;;;;;5050052;28;20028;-72
2020/12/04 10:23:22;;;;;;;0.20;0.20;;;;;;;;;;5072771;28;20020;-72
2020/12/04 10:25:48;;;;;;;0.20;0.20;;;;;;;;;;5055397;28;20017;-72
2020/12/04 10:28:13;;;;;;;0.20;0.20;;;;;;;;;;5069079;28;20456;-72
2020/12/04 10:30:38;;;;;;;0.20;0.20;;;;;;;;;;5070084;28;20056;-73
2020/12/04 10:33:03;;;;;;;0.20;0.20;;;;;;;;;;5075360;28;20038;-78
2020/12/04 10:35:31;;;;;;;0.20;0.20;;;;;;;;;;5057602;28;20596;-74
2020/12/04 10:38:16;;;;;;;0.20;0.20;;;;;;;;;;5061704;28;20075;-73
2020/12/04 10:40:42;;;;;;;0.20;0.20;;;;;;;;;;5072336;28;20282;-72
2020/12/04 10:43:07;;;;;;;0.20;0.20;;;;;;;;;;5071926;28;20380;-72
2020/12/04 10:45:32;;;;;;;0.20;0.20;;;;;;;;;;5073213;28;20013;-72
2020/12/04 10:47:57;;;;;;;0.20;0.20;;;;;;;;;;5057716;28;20016;-73
2020/12/04 10:50:23;;;;;;;0.20;0.20;;;;;;;;;;5072907;28;20067;-73
2020/12/04 10:52:48;;;;;;;0.20;0.20;;;;;;;;;;5073112;28;20025;-73
2020/12/04 10:55:13;;;;;;;0.20;0.20;;;;;;;;;;5072568;28;20016;-74
2020/12/04 10:57:45;;;;;;;0.20;0.20;;;;;;;;;;5073531;28;20024;-74
2020/12/04 11:00:10;;;;;;;0.20;0.20;;;;;;;;;;5046647;28;20081;-73
2020/12/04 11:02:38;;;;;;;0.10;0.10;;;;;;;;;;5064872;28;20489;-73
2020/12/04 11:07:47;;;;;;;0.10;0.10;;;;;;;;;;5049649;28;20024;-74
2020/12/04 11:10:12;;;;;;;0.20;0.20;;;;;;;;;;5051285;28;20016;-74
2020/12/04 11:12:38;;;;;;;0.20;0.20;;;;;;;;;;5068420;28;20048;-74
2020/12/04 11:15:03;;;;;;;0.20;0.20;;;;;;;;;;5052840;28;20021;-74
2020/12/04 11:17:32;;;;;;;0.20;0.20;;;;;;;;;;5035580;28;20021;-74
2020/12/04 11:19:57;;;;;;;0.20;0.20;;;;;;;;;;5053289;28;20071;-74
2020/12/04 11:22:23;;;;;;;0.20;0.20;;;;;;;;;;5053627;28;20036;-73
2020/12/04 11:24:48;;;;;;;0.20;0.20;;;;;;;;;;5053601;28;20461;-73
2020/12/04 11:27:13;;;;;;;0.20;0.20;;;;;;;;;;5052624;28;20017;-73
2020/12/04 11:29:39;;;;;;;0.20;0.20;;;;;;;;;;5053379;28;20355;-74
2020/12/04 11:32:04;;;;;;;0.20;0.20;;;;;;;;;;5060414;28;20102;-74
2020/12/04 11:34:29;;;;;;;0.20;0.20;;;;;;;;;;5052609;28;20147;-73
2020/12/04 11:36:55;;;;;;;0.20;0.20;;;;;;;;;;5052161;28;20028;-74
2020/12/04 11:39:20;;;;;;;0.20;0.20;;;;;;;;;;5018116;28;20025;-74
2020/12/04 11:41:47;;;;;;;0.20;0.20;;;;;;;;;;5047325;28;20025;-74
2020/12/04 11:44:12;;;;;;;0.10;0.10;;;;;;;;;;5034750;28;20067;-73
2020/12/04 11:46:38;;;;;;;0.20;0.20;;;;;;;;;;5052114;28;20025;-73
2020/12/04 11:49:03;;;;;;;0.20;0.20;;;;;;;;;;5051826;28;20040;-73
2020/12/04 11:51:29;;;;;;;0.17;0.17;;;;;;;;;;5051728;28;20028;-73
2020/12/04 11:53:54;;;;;;;0.20;0.20;;;;;;;;;;5053013;28;20040;-74
2020/12/04 11:56:19;;;;;;;0.20;0.20;;;;;;;;;;5034832;28;20033;-72
2020/12/04 11:58:47;;;;;;;0.20;0.20;;;;;;;;;;5060448;28;20020;-73
2020/12/04 12:01:12;;;;;;;0.20;0.20;;;;;;;;;;5072657;28;20039;-70
2020/12/04 12:03:38;;;;;;;0.30;0.30;;;;;;;;;;5086671;28;20048;-70
2020/12/04 12:06:03;;;;;;;0.20;0.20;;;;;;;;;;5072461;28;20043;-70
2020/12/04 12:08:28;;;;;;;0.15;0.15;;;;;;;;;;5061532;28;20025;-70
2020/12/04 12:10:57;;;;;;;0.20;0.20;;;;;;;;;;5051946;28;20032;-70
2020/12/04 12:13:22;;;;;;;0.10;0.10;;;;;;;;;;5066091;28;20052;-70
2020/12/04 12:15:47;;;;;;;0.20;0.20;;;;;;;;;;5054378;28;20021;-70
2020/12/04 12:18:13;;;;;;;0.20;0.20;;;;;;;;;;5077257;28;20027;-70
2020/12/04 12:20:38;;;;;;;0.22;0.22;;;;;;;;;;5070725;28;20402;-71
2020/12/04 12:23:03;;;;;;;0.20;0.20;;;;;;;;;;5070632;28;20476;-70
2020/12/04 12:25:28;;;;;;;0.20;0.20;;;;;;;;;;5071339;28;20103;-70
2020/12/04 12:27:54;;;;;;;0.20;0.20;;;;;;;;;;5091415;28;20494;-71
2020/12/04 12:30:19;;;;;;;0.20;0.20;;;;;;;;;;5095316;28;20479;-70
2020/12/04 12:32:44;;;;;;;0.20;0.20;;;;;;;;;;5075849;28;20013;-70
2020/12/04 12:35:13;;;;;;;0.20;0.20;;;;;;;;;;5074595;28;20265;-70
2020/12/04 12:37:38;;;;;;;0.20;0.20;;;;;;;;;;5058247;28;20028;-71
2020/12/04 12:40:04;;;;;;;0.20;0.20;;;;;;;;;;5074535;28;20461;-70
2020/12/04 12:42:32;;;;;;;0.20;0.20;;;;;;;;;;5074579;28;20023;-70
2020/12/04 12:44:59;;;;;;;0.20;0.20;;;;;;;;;;5075225;28;20035;-71
2020/12/04 12:47:25;;;;;;;0.20;0.20;;;;;;;;;;5058109;28;20050;-70
2020/12/04 12:49:50;;;;;;;0.20;0.20;;;;;;;;;;5074789;28;20020;-70
2020/12/04 12:52:15;;;;;;;0.20;0.20;;;;;;;;;;5074539;28;20024;-71
2020/12/04 12:54:41;;;;;;;0.20;0.20;;;;;;;;;;5074721;28;20021;-70
2020/12/04 12:57:06;;;;;;;0.20;0.20;;;;;;;;;;5074210;28;20017;-70
2020/12/04 12:59:31;;;;;;;0.20;0.20;;;;;;;;;;5057503;28;20555;-70
2020/12/04 13:01:57;;;;;;;0.20;0.20;;;;;;;;;;5076521;28;20017;-70
2020/12/04 13:04:23;;;;;;;0.20;0.20;;;;;;;;;;5111305;28;20449;-70
2020/12/04 13:06:49;;;;;;;0.20;0.20;;;;;;;;;;5095434;28;20014;-71
2020/12/04 13:09:14;;;;;;;0.20;0.20;;;;;;;;;;5060305;28;20017;-70
2020/12/04 13:11:39;;;;;;;0.20;0.20;;;;;;;;;;5042805;28;20059;-70
2020/12/04 13:14:05;;;;;;;0.20;0.20;;;;;;;;;;5077195;28;20555;-70
2020/12/04 13:16:37;;;;;;;0.20;0.20;;;;;;;;;;5077266;28;20032;-70
2020/12/04 13:19:02;;;;;;;0.20;0.20;;;;;;;;;;5086471;28;20076;-70
2020/12/04 13:21:54;;;;;;;0.20;0.20;;;;;;;;;;5080490;28;20028;-70
2020/12/04 13:24:13;;;;;;;0.20;0.20;;;;;;;;;;5100187;28;20032;-70
2020/12/04 13:26:38;;;;;;;0.10;0.10;;;;;;;;;;5074548;28;20080;-70
2020/12/04 13:29:04;;;;;;;0.20;0.20;;;;;;;;;;5057210;28;20031;-70
2020/12/04 13:31:32;;;;;;;0.20;0.20;;;;;;;;;;5087953;28;20102;-70
2020/12/04 13:33:58;;;;;;;0.20;0.20;;;;;;;;;;5075171;28;20016;-71
2020/12/04 13:36:24;;;;;;;0.20;0.20;;;;;;;;;;5089460;28;20016;-70
2020/12/04 13:38:49;;;;;;;0.20;0.20;;;;;;;;;;5058261;28;20971;-70
2020/12/04 13:41:14;;;;;;;0.20;0.20;;;;;;;;;;5055744;28;20468;-70
2020/12/04 13:43:42;;;;;;;0.20;0.20;;;;;;;;;;5071685;28;20499;-70
2020/12/04 13:46:07;;;;;;;0.20;0.20;;;;;;;;;;5070633;28;20071;-70
2020/12/04 13:48:33;;;;;;;0.20;0.20;;;;;;;;;;5094327;28;20472;-70
2020/12/04 13:50:58;;;;;;;0.20;0.20;;;;;;;;;;5072038;28;20155;-69
2020/12/04 13:53:23;;;;;;;0.20;0.20;;;;;;;;;;5055057;28;20334;-69
2020/12/04 13:55:49;;;;;;;0.20;0.20;;;;;;;;;;5079472;28;20028;-69
2020/12/04 13:58:14;;;;;;;0.20;0.20;;;;;;;;;;5075567;28;20031;-69
2020/12/04 14:00:40;;;;;;;0.20;0.20;;;;;;;;;;5059377;28;20024;-69
2020/12/04 14:03:05;;;;;;;0.25;0.25;;;;;;;;;;5055398;28;20048;-70
2020/12/04 14:05:30;;;;;;;0.20;0.20;;;;;;;;;;5071045;28;20036;-70
2020/12/04 14:07:56;;;;;;;0.20;0.20;;;;;;;;;;5065458;28;20602;-74
2020/12/04 14:10:21;;;;;;;0.20;0.20;;;;;;;;;;5071471;28;20029;-74
2020/12/04 14:12:47;;;;;;;0.20;0.20;;;;;;;;;;5073770;28;20060;-75
2020/12/04 14:15:12;;;;;;;0.20;0.20;;;;;;;;;;5084018;28;20028;-72
2020/12/04 14:17:37;;;;;;;0.20;0.20;;;;;;;;;;5072242;28;20029;-73
2020/12/04 14:20:03;;;;;;;0.20;0.20;;;;;;;;;;5069114;28;20028;-73
2020/12/04 14:22:28;;;;;;;0.20;0.20;;;;;;;;;;5069591;28;20079;-71
2020/12/04 14:24:53;;;;;;;0.20;0.20;;;;;;;;;;5070151;28;20115;-74
2020/12/04 14:27:20;;;;;;;0.10;0.10;;;;;;;;;;5070813;28;20020;-72
2020/12/04 14:29:45;;;;;;;0.20;0.20;;;;;;;;;;5069005;28;20144;-72
2020/12/04 14:32:10;;;;;;;0.20;0.20;;;;;;;;;;5072215;28;20028;-72
2020/12/04 14:34:38;;;;;;;0.15;0.15;;;;;;;;;;5073588;28;20122;-73
2020/12/04 14:37:03;;;;;;;0.20;0.20;;;;;;;;;;5073087;28;20024;-72
2020/12/04 14:39:28;;;;;;;0.20;0.20;;;;;;;;;;5073076;28;20036;-73
2020/12/04 14:41:54;;;;;;;0.20;0.20;;;;;;;;;;5057187;28;20100;-74